Time;durP1;ratioP1;P1;durP2;ratioP2;P2;SDS_P1;SDS_P2;PMS_P1;PMS_P2;Temp;Humidity;BMP_temperature;BMP_pressure;BME280_temperature;BME280_humidity;BME280_pressure;Samples;Min_cycle;Max_cycle;Signal;HPM_P1;HPM_P2
2022/12/10 00:01:54;;;;;;;45.10;18.70;;;;;;;-145.69;100.00;52773.16;5098151;28;20194;-86
2022/12/10 00:04:21;;;;;;;43.87;18.50;;;;;;;-145.69;100.00;52751.34;5097876;28;20205;-85
2022/12/10 00:06:49;;;;;;;47.17;19.67;;;;;;;-145.69;100.00;52763.25;5099017;28;20190;-85
2022/12/10 00:09:18;;;;;;;49.67;20.13;;;;;;;-145.69;100.00;52773.16;5100937;28;20671;-85
2022/12/10 00:11:45;;;;;;;43.67;20.03;;;;;;;-145.69;100.00;52765.22;5099285;28;20207;-85
2022/12/10 00:14:12;;;;;;;47.07;20.67;;;;;;;-145.69;100.00;52781.06;5096947;28;20241;-84
2022/12/10 00:16:39;;;;;;;40.27;19.33;;;;;;;-145.69;100.00;52777.09;5094921;28;20209;-85
2022/12/10 00:19:06;;;;;;;48.17;21.93;;;;;;;-145.69;100.00;52745.41;5094812;28;20198;-85
2022/12/10 00:21:35;;;;;;;48.47;21.73;;;;;;;-145.69;100.00;52781.06;5095397;28;20201;-85
2022/12/10 00:24:04;;;;;;;45.13;20.63;;;;;;;-145.69;100.00;52771.16;5094330;28;20687;-85
2022/12/10 00:26:32;;;;;;;43.93;19.77;;;;;;;-145.69;100.00;52747.41;5095347;28;20299;-85
2022/12/10 00:29:00;;;;;;;46.17;20.13;;;;;;;-145.69;100.00;52761.25;5094435;28;20198;-85
2022/12/10 00:31:29;;;;;;;48.43;21.00;;;;;;;-145.69;100.00;52769.19;5093687;28;20663;-85
2022/12/10 00:33:57;;;;;;;49.60;21.07;;;;;;;-145.69;100.00;52789.00;5093803;28;20230;-85
2022/12/10 00:36:26;;;;;;;56.37;23.20;;;;;;;-145.69;100.00;52753.34;5093756;28;20597;-85
2022/12/10 00:38:53;;;;;;;54.90;21.97;;;;;;;-145.69;100.00;52761.25;5094798;28;20212;-85
2022/12/10 00:41:21;;;;;;;56.43;23.30;;;;;;;-145.69;100.00;52725.63;5093987;28;20198;-84
2022/12/10 00:43:48;;;;;;;56.53;23.77;;;;;;;-145.69;100.00;52773.16;5093435;28;20652;-85
2022/12/10 00:46:16;;;;;;;47.90;21.17;;;;;;;-145.69;100.00;52741.47;5094225;28;20683;-85
2022/12/10 00:48:43;;;;;;;49.97;21.87;;;;;;;-145.69;100.00;52781.06;5094288;28;20205;-85
2022/12/10 00:51:12;;;;;;;50.50;22.50;;;;;;;-145.69;100.00;52777.09;5081352;28;20208;-84
2022/12/10 00:53:40;;;;;;;49.87;20.53;;;;;;;-145.69;100.00;52771.16;5090128;28;20226;-86
2022/12/10 00:56:08;;;;;;;54.60;22.40;;;;;;;-145.69;100.00;52773.16;5093604;28;20209;-85
2022/12/10 00:58:38;;;;;;;44.97;20.83;;;;;;;-145.69;100.00;52747.41;5093567;28;20220;-85
2022/12/10 01:01:12;;;;;;;47.90;21.00;;;;;;;-145.69;100.00;52749.38;5093960;28;20556;-85
2022/12/10 01:03:39;;;;;;;48.17;21.00;;;;;;;-145.69;100.00;52785.03;5093569;28;20228;-85
2022/12/10 01:06:10;;;;;;;52.43;20.47;;;;;;;-145.69;100.00;52757.31;5093642;28;20652;-85
2022/12/10 01:08:37;;;;;;;53.20;21.83;;;;;;;-145.69;100.00;52753.34;5094280;28;20194;-85
2022/12/10 01:11:04;;;;;;;52.13;21.00;;;;;;;-145.69;100.00;52777.09;5094327;28;20204;-85
2022/12/10 01:13:30;;;;;;;48.97;20.43;;;;;;;-145.69;100.00;52757.31;5093810;28;20198;-85
2022/12/10 01:16:01;;;;;;;49.93;20.67;;;;;;;-145.69;100.00;52767.19;5094143;28;20205;-85
2022/12/10 01:18:27;;;;;;;51.43;20.20;;;;;;;-145.69;100.00;52751.34;5094966;28;20204;-85
2022/12/10 01:20:54;;;;;;;46.07;19.03;;;;;;;-145.69;100.00;52785.03;5090069;28;20210;-85
2022/12/10 01:23:20;;;;;;;46.43;20.13;;;;;;;-145.69;100.00;52729.56;5076603;28;20203;-85
2022/12/10 01:25:47;;;;;;;48.53;20.07;;;;;;;-145.69;100.00;52794.94;5082852;28;20550;-86
2022/12/10 01:28:13;;;;;;;53.10;20.40;;;;;;;-145.69;100.00;52777.09;5081174;28;20290;-85
2022/12/10 01:30:40;;;;;;;48.67;20.03;;;;;;;-145.69;100.00;52761.25;5081640;28;20664;-85
2022/12/10 01:33:08;;;;;;;48.27;19.37;;;;;;;-145.69;100.00;52757.31;5094049;28;20198;-85
2022/12/10 01:35:37;;;;;;;44.50;19.37;;;;;;;-145.69;100.00;52783.06;5103679;28;20242;-85
2022/12/10 01:38:03;;;;;;;47.73;20.60;;;;;;;-145.69;100.00;52739.47;5105802;28;20216;-85
2022/12/10 01:40:30;;;;;;;46.80;21.37;;;;;;;-145.69;100.00;52775.13;5105078;28;20210;-84
2022/12/10 01:42:56;;;;;;;50.23;21.80;;;;;;;-145.69;100.00;52769.19;5104506;28;20202;-85
2022/12/10 01:45:23;;;;;;;54.43;21.50;;;;;;;-145.69;100.00;52767.19;5107522;28;20213;-85
2022/12/10 01:47:49;;;;;;;45.87;20.50;;;;;;;-145.69;100.00;52781.06;5100622;28;20204;-84
2022/12/10 01:50:18;;;;;;;54.83;21.83;;;;;;;-145.69;100.00;52763.25;5101663;28;20201;-86
2022/12/10 01:52:44;;;;;;;48.37;20.87;;;;;;;-145.69;100.00;52741.47;5102817;28;20262;-85
2022/12/10 01:55:40;;;;;;;48.03;20.37;;;;;;;-145.69;100.00;52800.88;5107930;28;20236;-85
2022/12/10 01:58:06;;;;;;;43.23;18.87;;;;;;;-145.69;100.00;52769.19;5108139;28;20195;-85
2022/12/10 02:00:38;;;;;;;51.03;19.73;;;;;;;-145.69;100.00;52771.16;5114173;28;20684;-85
2022/12/10 02:03:14;;;;;;;52.73;20.93;;;;;;;-145.69;100.00;52761.25;5112136;28;20198;-85
2022/12/10 02:05:45;;;;;;;53.30;20.90;;;;;;;-145.69;100.00;52773.16;5112947;28;20198;-85
2022/12/10 02:08:18;;;;;;;49.83;20.77;;;;;;;-145.69;100.00;52745.41;5106873;28;20270;-85
2022/12/10 02:10:56;;;;;;;51.77;20.07;;;;;;;-145.69;100.00;52777.09;5099154;28;20202;-86
2022/12/10 02:13:28;;;;;;;45.43;20.00;;;;;;;-145.69;100.00;52721.66;5103192;28;20201;-85
2022/12/10 02:16:05;;;;;;;47.60;20.20;;;;;;;-145.69;100.00;52725.63;5102341;28;20229;-85
2022/12/10 02:18:36;;;;;;;49.43;19.80;;;;;;;-145.69;100.00;52769.19;5103185;28;20211;-85
2022/12/10 02:21:09;;;;;;;52.57;21.40;;;;;;;-145.69;100.00;52757.31;5108331;28;20213;-85
2022/12/10 02:23:39;;;;;;;45.07;19.40;;;;;;;-145.69;100.00;52727.59;5105755;28;20202;-85
2022/12/10 02:26:15;;;;;;;55.17;20.33;;;;;;;-145.69;100.00;52779.09;5104660;28;20202;-85
2022/12/10 02:28:49;;;;;;;53.83;20.30;;;;;;;-145.69;100.00;52757.31;5100383;28;20206;-86
2022/12/10 02:31:22;;;;;;;46.00;19.87;;;;;;;-145.69;100.00;52723.63;5099771;28;20194;-85
2022/12/10 02:33:55;;;;;;;46.10;20.30;;;;;;;-145.69;100.00;52763.25;5097398;28;20194;-85
2022/12/10 02:36:24;;;;;;;47.10;20.13;;;;;;;-145.69;100.00;52753.34;5095798;28;20237;-85
2022/12/10 02:38:53;;;;;;;45.77;20.20;;;;;;;-145.69;100.00;52757.31;5096502;28;20641;-85
2022/12/10 02:41:26;;;;;;;50.83;20.40;;;;;;;-145.69;100.00;52735.50;5095358;28;20279;-85
2022/12/10 02:43:55;;;;;;;58.33;21.33;;;;;;;-145.69;100.00;52747.41;5095991;28;20656;-85
2022/12/10 02:46:28;;;;;;;61.97;22.27;;;;;;;-145.69;100.00;52781.06;5095897;28;20202;-84
2022/12/10 02:48:55;;;;;;;59.97;24.23;;;;;;;-145.69;100.00;52763.25;5095355;28;20223;-85
2022/12/10 02:51:22;;;;;;;69.10;24.43;;;;;;;-145.69;100.00;52757.31;5096153;28;20623;-85
2022/12/10 02:53:49;;;;;;;64.63;24.43;;;;;;;-145.69;100.00;52761.25;5095610;28;20698;-85
2022/12/10 02:56:24;;;;;;;63.47;23.20;;;;;;;-145.69;100.00;52751.34;5095459;28;20204;-84
2022/12/10 02:59:02;;;;;;;60.93;23.20;;;;;;;-145.69;100.00;52767.19;5095970;28;20194;-84
2022/12/10 03:01:41;;;;;;;57.83;22.20;;;;;;;-145.69;100.00;52769.19;5095986;28;20206;-85
2022/12/10 03:04:15;;;;;;;50.33;20.83;;;;;;;-145.69;100.00;52745.41;5103782;28;20201;-85
2022/12/10 03:06:46;;;;;;;54.97;22.33;;;;;;;-145.69;100.00;52777.09;5095760;28;20284;-85
2022/12/10 03:09:18;;;;;;;54.80;22.67;;;;;;;-145.69;100.00;52777.09;5096054;28;20220;-86
2022/12/10 03:11:48;;;;;;;52.17;21.73;;;;;;;-145.69;100.00;52781.06;5095763;28;20191;-85
2022/12/10 03:14:17;;;;;;;61.13;23.03;;;;;;;-145.69;100.00;52789.00;5095669;28;20234;-85
2022/12/10 03:16:51;;;;;;;64.60;23.57;;;;;;;-145.69;100.00;52763.25;5095796;28;20220;-86
2022/12/10 03:19:21;;;;;;;66.57;25.23;;;;;;;-145.69;100.00;52737.50;5095838;28;20202;-85
2022/12/10 03:21:50;;;;;;;64.73;24.33;;;;;;;-145.69;100.00;52755.31;5095998;28;20209;-85
2022/12/10 03:24:17;;;;;;;68.17;25.23;;;;;;;-145.69;100.00;52763.25;5096511;28;20210;-86
2022/12/10 03:26:47;;;;;;;63.63;23.67;;;;;;;-145.69;100.00;52769.19;5096151;28;20202;-85
2022/12/10 03:29:19;;;;;;;56.53;22.73;;;;;;;-145.69;100.00;52733.53;5083080;28;20198;-85
2022/12/10 03:31:48;;;;;;;68.90;22.83;;;;;;;-145.69;100.00;52765.22;5080026;28;20198;-85
2022/12/10 03:34:15;;;;;;;67.17;24.83;;;;;;;-145.69;100.00;52755.31;5096639;28;20204;-83
2022/12/10 03:36:42;;;;;;;68.37;26.17;;;;;;;-145.69;100.00;52773.16;5098666;28;20202;-85
2022/12/10 03:39:09;;;;;;;88.27;30.67;;;;;;;-145.69;100.00;52761.25;5108755;28;20202;-85
2022/12/10 03:41:36;;;;;;;79.73;29.20;;;;;;;-145.69;100.00;52802.84;5107813;28;20672;-85
2022/12/10 03:44:14;;;;;;;63.90;24.70;;;;;;;-145.69;100.00;52773.16;5107682;28;20208;-86
2022/12/10 03:46:40;;;;;;;68.07;25.80;;;;;;;-145.69;100.00;52737.50;5099789;28;20246;-85
2022/12/10 03:49:08;;;;;;;65.17;24.33;;;;;;;-145.69;100.00;52769.19;5099743;28;20198;-85
2022/12/10 03:51:34;;;;;;;69.50;23.07;;;;;;;-145.69;100.00;52773.16;5097970;28;20198;-86
2022/12/10 03:54:01;;;;;;;67.83;22.90;;;;;;;-145.69;100.00;52765.22;5096650;28;20205;-85
2022/12/10 03:56:28;;;;;;;69.70;26.43;;;;;;;-145.69;100.00;52783.06;5077163;28;20227;-86
2022/12/10 03:58:54;;;;;;;69.37;24.30;;;;;;;-145.69;100.00;52767.19;5078442;28;20203;-85
2022/12/10 04:01:23;;;;;;;65.93;25.07;;;;;;;-145.69;100.00;52761.25;5078369;28;20209;-84
2022/12/10 04:03:49;;;;;;;81.70;25.83;;;;;;;-145.69;100.00;52747.41;5094609;28;20202;-85
2022/12/10 04:06:19;;;;;;;82.77;25.93;;;;;;;-145.69;100.00;52733.53;5094236;28;20206;-86
2022/12/10 04:08:46;;;;;;;69.23;25.23;;;;;;;-145.69;100.00;52779.09;5094045;28;20198;-85
2022/12/10 04:11:14;;;;;;;71.27;24.97;;;;;;;-145.69;100.00;52804.84;5093814;28;20565;-85
2022/12/10 04:16:29;;;;;;;68.43;24.20;;;;;;;-145.69;100.00;52731.56;5093488;28;20769;-85
2022/12/10 04:18:58;;;;;;;58.87;23.63;;;;;;;-145.69;100.00;52777.09;5094035;28;20575;-85
2022/12/10 04:27:11;;;;;;;59.90;23.47;;;;;;;-145.69;100.00;52741.47;5094074;28;20212;-86
2022/12/10 04:29:38;;;;;;;63.77;24.67;;;;;;;-145.69;100.00;52741.47;5093958;28;20645;-86
2022/12/10 04:32:05;;;;;;;58.43;22.03;;;;;;;-145.69;100.00;52745.41;5095304;28;20209;-86
2022/12/10 04:34:32;;;;;;;63.20;23.00;;;;;;;-145.69;100.00;52755.31;5093852;28;20194;-86
2022/12/10 04:37:01;;;;;;;74.78;31.88;;;;;;;-145.69;100.00;52767.19;5092385;28;20825;-86
2022/12/10 04:39:30;;;;;;;59.67;25.10;;;;;;;-145.69;100.00;52763.25;5094215;28;20206;-86
2022/12/10 04:41:58;;;;;;;60.67;22.90;;;;;;;-145.69;100.00;52765.22;5094622;28;20292;-85
2022/12/10 04:44:25;;;;;;;59.93;22.60;;;;;;;-145.69;100.00;52773.16;5095092;28;20205;-85
2022/12/10 04:46:54;;;;;;;61.23;22.37;;;;;;;-145.69;100.00;52767.19;5096184;28;20201;-86
2022/12/10 04:49:20;;;;;;;54.00;22.27;;;;;;;-145.69;100.00;52761.25;5093800;28;20275;-84
2022/12/10 04:51:47;;;;;;;63.30;22.73;;;;;;;-145.69;100.00;52743.44;5093134;28;20668;-86
2022/12/10 04:54:15;;;;;;;57.73;21.70;;;;;;;-145.69;100.00;52727.59;5093594;28;20201;-85
2022/12/10 04:56:45;;;;;;;55.03;22.43;;;;;;;-145.69;100.00;52765.22;5092133;28;20226;-86
2022/12/10 04:59:12;;;;;;;53.10;21.63;;;;;;;-145.69;100.00;52765.22;5093781;28;20194;-85
2022/12/10 05:01:38;;;;;;;64.50;23.63;;;;;;;-145.69;100.00;52745.41;5093145;28;20229;-85
2022/12/10 05:04:08;;;;;;;54.40;22.97;;;;;;;-145.69;100.00;52773.16;5095104;28;20656;-86
2022/12/10 05:06:35;;;;;;;59.17;22.40;;;;;;;-145.69;100.00;52753.34;5099228;28;20202;-84
2022/12/10 05:09:02;;;;;;;64.60;24.77;;;;;;;-145.69;100.00;52769.19;5109703;28;20204;-84
2022/12/10 05:11:32;;;;;;;61.53;24.17;;;;;;;-145.69;100.00;52749.38;5111998;28;20288;-84
2022/12/10 05:13:59;;;;;;;61.90;25.30;;;;;;;-145.69;100.00;52759.28;5106355;28;20198;-85
2022/12/10 05:16:28;;;;;;;71.17;25.57;;;;;;;-145.69;100.00;52806.81;5101809;28;20296;-84
2022/12/10 05:18:55;;;;;;;77.67;25.70;;;;;;;-145.69;100.00;52751.34;5102067;28;20203;-85
2022/12/10 05:21:23;;;;;;;74.77;24.80;;;;;;;-145.69;100.00;52777.09;5092623;28;20194;-84
2022/12/10 05:23:51;;;;;;;70.70;24.17;;;;;;;-145.69;100.00;52800.88;5101336;28;20205;-85
2022/12/10 05:26:20;;;;;;;63.97;24.67;;;;;;;-145.69;100.00;52773.16;5100859;28;20222;-85
2022/12/10 05:28:50;;;;;;;66.77;24.33;;;;;;;-145.69;100.00;52769.19;5103460;28;20209;-85
2022/12/10 05:31:19;;;;;;;71.37;25.00;;;;;;;-145.69;100.00;52769.19;5109573;28;20202;-84
2022/12/10 05:33:47;;;;;;;65.40;23.03;;;;;;;-145.69;100.00;52719.66;5107057;28;20277;-84
2022/12/10 05:36:17;;;;;;;70.67;24.90;;;;;;;-145.69;100.00;52761.25;5102868;28;20238;-85
2022/12/10 05:38:44;;;;;;;72.27;26.30;;;;;;;-145.69;100.00;52763.25;5104436;28;20230;-85
2022/12/10 05:41:13;;;;;;;73.23;24.80;;;;;;;-145.69;100.00;52777.09;5106740;28;20241;-84
2022/12/10 05:43:40;;;;;;;59.00;22.50;;;;;;;-145.69;100.00;52761.25;5102226;28;20202;-85
2022/12/10 05:46:14;;;;;;;63.17;24.80;;;;;;;-145.69;100.00;52755.31;5105748;28;20198;-85
2022/12/10 05:48:40;;;;;;;63.70;25.10;;;;;;;-145.69;100.00;52755.31;5105089;28;20202;-83
2022/12/10 05:51:09;;;;;;;73.17;24.37;;;;;;;-145.69;100.00;52741.47;5097268;28;20193;-85
2022/12/10 05:53:36;;;;;;;63.60;24.73;;;;;;;-145.69;100.00;52757.31;5098971;28;20205;-86
2022/12/10 05:56:04;;;;;;;63.37;24.57;;;;;;;-145.69;100.00;52729.56;5097540;28;20233;-86
2022/12/10 05:58:31;;;;;;;65.43;24.37;;;;;;;-145.69;100.00;52757.31;5098957;28;20198;-86
2022/12/10 06:00:58;;;;;;;64.37;24.40;;;;;;;-145.69;100.00;52761.25;5100104;28;20711;-85
2022/12/10 06:03:28;;;;;;;68.03;24.30;;;;;;;-145.69;100.00;52741.47;5098026;28;20664;-86
2022/12/10 06:05:54;;;;;;;68.17;24.53;;;;;;;-145.69;100.00;52806.81;5102828;28;20649;-85
2022/12/10 06:08:21;;;;;;;66.63;24.40;;;;;;;-145.69;100.00;52785.03;5109321;28;20270;-86
2022/12/10 06:10:48;;;;;;;73.77;25.60;;;;;;;-145.69;100.00;52798.91;5110902;28;20338;-85
2022/12/10 06:13:15;;;;;;;69.77;25.20;;;;;;;-145.69;100.00;52769.19;5103716;28;20198;-85
2022/12/10 06:15:42;;;;;;;63.00;23.80;;;;;;;-145.69;100.00;52753.34;5103534;28;20226;-85
2022/12/10 06:18:12;;;;;;;73.50;26.47;;;;;;;-145.69;100.00;52743.44;5101031;28;20209;-85
2022/12/10 06:20:41;;;;;;;82.10;26.23;;;;;;;-145.69;100.00;52755.31;5100598;28;20208;-86
2022/12/10 06:23:08;;;;;;;72.40;25.13;;;;;;;-145.69;100.00;52769.19;5102219;28;20202;-85
2022/12/10 06:25:34;;;;;;;74.47;25.47;;;;;;;-145.69;100.00;52796.91;5101386;28;20561;-85
2022/12/10 06:28:01;;;;;;;62.93;23.03;;;;;;;-145.69;100.00;52759.28;5101050;28;20662;-86
2022/12/10 06:30:30;;;;;;;63.37;24.00;;;;;;;-145.69;100.00;52771.16;5097910;28;20198;-85
2022/12/10 06:32:57;;;;;;;67.23;24.77;;;;;;;-145.69;100.00;52792.94;5096461;28;20281;-85
2022/12/10 06:35:23;;;;;;;63.90;24.10;;;;;;;-145.69;100.00;52769.19;5096702;28;20233;-85
2022/12/10 06:37:51;;;;;;;65.77;25.10;;;;;;;-145.69;100.00;52749.38;5096999;28;20221;-85
2022/12/10 06:40:18;;;;;;;59.73;22.97;;;;;;;-145.69;100.00;52765.22;5095965;28;20206;-85
2022/12/10 06:42:45;;;;;;;63.87;22.53;;;;;;;-145.69;100.00;52739.47;5103579;28;20289;-85
2022/12/10 06:45:12;;;;;;;68.87;30.37;;;;;;;-145.69;100.00;52769.19;5103342;28;20439;-85
2022/12/10 06:47:41;;;;;;;63.77;23.27;;;;;;;-145.69;100.00;52717.69;5105825;28;20205;-85
2022/12/10 06:50:08;;;;;;;58.20;23.23;;;;;;;-145.69;100.00;52747.41;5100022;28;20627;-84
2022/12/10 06:52:38;;;;;;;58.50;23.30;;;;;;;-145.69;100.00;52779.09;5098846;28;20194;-85
2022/12/10 06:55:08;;;;;;;59.43;22.97;;;;;;;-145.69;100.00;52773.16;5103870;28;20221;-85
2022/12/10 06:57:37;;;;;;;60.80;23.87;;;;;;;-145.69;100.00;52773.16;5102536;28;20200;-85
2022/12/10 07:00:05;;;;;;;77.40;27.23;;;;;;;-145.69;100.00;52759.28;5099042;28;20198;-85
2022/12/10 07:02:31;;;;;;;68.37;27.00;;;;;;;-145.69;100.00;52761.25;5100557;28;20265;-85
2022/12/10 07:04:59;;;;;;;72.37;27.13;;;;;;;-145.69;100.00;52753.34;5098726;28;20236;-84
2022/12/10 07:07:26;;;;;;;69.03;25.70;;;;;;;-145.69;100.00;52745.41;5098559;28;20198;-85
2022/12/10 07:09:53;;;;;;;65.93;26.30;;;;;;;-145.69;100.00;52759.28;5097842;28;20205;-85
2022/12/10 07:12:20;;;;;;;102.60;35.07;;;;;;;-145.69;100.00;52769.19;5094985;28;20201;-85
2022/12/10 07:14:47;;;;;;;114.97;37.13;;;;;;;-145.69;100.00;52743.44;5094974;28;20194;-85
2022/12/10 07:17:13;;;;;;;76.30;28.17;;;;;;;-145.69;100.00;52767.19;5094371;28;20225;-85
2022/12/10 07:19:40;;;;;;;63.83;25.10;;;;;;;-145.69;100.00;52769.19;5094543;28;20194;-85
2022/12/10 07:22:06;;;;;;;71.17;26.27;;;;;;;-145.69;100.00;52769.19;5095118;28;20353;-85
2022/12/10 07:24:33;;;;;;;66.87;24.40;;;;;;;-145.69;100.00;52777.09;5094398;28;20202;-84
2022/12/10 07:27:02;;;;;;;74.47;26.90;;;;;;;-145.69;100.00;52745.41;5092471;28;20233;-85
2022/12/10 07:29:32;;;;;;;59.97;23.63;;;;;;;-145.69;100.00;52743.44;5093774;28;20252;-85
2022/12/10 07:31:59;;;;;;;73.43;28.25;;;;;;;-145.69;100.00;52789.00;5095090;28;20447;-85
2022/12/10 07:34:26;;;;;;;71.83;26.27;;;;;;;-145.69;100.00;52767.19;5095833;28;20195;-85
2022/12/10 07:36:52;;;;;;;71.43;25.60;;;;;;;-145.69;100.00;52745.41;5095423;28;20225;-84
2022/12/10 07:39:19;;;;;;;66.83;25.10;;;;;;;-145.69;100.00;52773.16;5095583;28;20202;-84
2022/12/10 07:41:47;;;;;;;64.10;25.13;;;;;;;-145.69;100.00;52777.09;5095120;28;20251;-85
2022/12/10 07:44:15;;;;;;;60.27;22.93;;;;;;;-145.69;100.00;52765.22;5094766;28;20194;-84
2022/12/10 07:46:45;;;;;;;58.17;21.83;;;;;;;-145.69;100.00;52779.09;5095095;28;20204;-84
2022/12/10 07:49:11;;;;;;;55.70;21.83;;;;;;;-145.69;100.00;52753.34;5095457;28;20197;-85
2022/12/10 07:51:40;;;;;;;50.90;20.90;;;;;;;-145.69;100.00;52761.25;5095473;28;20202;-84
2022/12/10 07:54:06;;;;;;;56.67;20.50;;;;;;;-145.69;100.00;52783.06;5094854;28;20640;-85
2022/12/10 07:56:33;;;;;;;56.47;21.10;;;;;;;-145.69;100.00;52771.16;5095161;28;20252;-85
2022/12/10 07:59:02;;;;;;;52.23;21.13;;;;;;;-145.69;100.00;52777.09;5095168;28;20205;-84
2022/12/10 08:01:28;;;;;;;55.47;20.90;;;;;;;-145.69;100.00;52777.09;5094680;28;20263;-85
2022/12/10 08:03:57;;;;;;;50.53;20.90;;;;;;;-145.69;100.00;52725.63;5095218;28;20202;-85
2022/12/10 08:06:25;;;;;;;53.73;21.37;;;;;;;-145.69;100.00;52755.31;5094926;28;20695;-84
2022/12/10 08:08:52;;;;;;;50.40;20.23;;;;;;;-145.69;100.00;52771.16;5097352;28;20225;-85
2022/12/10 08:11:20;;;;;;;47.57;19.23;;;;;;;-145.69;100.00;52701.84;5096222;28;20300;-84
2022/12/10 08:13:48;;;;;;;52.40;20.27;;;;;;;-145.69;100.00;52773.16;5094858;28;20208;-83
2022/12/10 08:16:17;;;;;;;47.17;19.07;;;;;;;-145.69;100.00;52741.47;5095068;28;20224;-84
2022/12/10 08:18:44;;;;;;;49.40;19.63;;;;;;;-145.69;100.00;52757.31;5096760;28;20553;-84
2022/12/10 08:21:14;;;;;;;46.10;19.40;;;;;;;-145.69;100.00;52753.34;5096167;28;20200;-83
2022/12/10 08:23:42;;;;;;;45.03;19.87;;;;;;;-145.69;100.00;52761.25;5095612;28;20644;-83
2022/12/10 08:26:10;;;;;;;37.43;15.00;;;;;;;-145.69;100.00;52737.50;5095764;28;20665;-82
2022/12/10 08:28:40;;;;;;;30.63;14.20;;;;;;;-145.69;100.00;52745.41;5096035;28;20202;-82
2022/12/10 08:31:09;;;;;;;39.93;16.47;;;;;;;-145.69;100.00;52767.19;5096403;28;20293;-82
2022/12/10 08:33:39;;;;;;;36.33;14.77;;;;;;;-145.69;100.00;52753.34;5094776;28;20229;-82
2022/12/10 08:36:07;;;;;;;31.97;13.27;;;;;;;-145.69;100.00;52779.09;5094474;28;20238;-82
2022/12/10 08:38:36;;;;;;;29.27;13.37;;;;;;;-145.69;100.00;52749.38;5094421;28;20200;-81
2022/12/10 08:41:07;;;;;;;29.73;13.00;;;;;;;-145.69;100.00;52777.09;5094402;28;20202;-83
2022/12/10 08:43:34;;;;;;;33.57;12.67;;;;;;;-145.69;100.00;52814.75;5094705;28;20198;-82
2022/12/10 08:46:00;;;;;;;24.70;11.10;;;;;;;-145.69;100.00;52711.75;5094721;28;20214;-82
2022/12/10 08:48:30;;;;;;;22.80;10.30;;;;;;;-145.69;100.00;52751.34;5094807;28;20202;-82
2022/12/10 08:50:56;;;;;;;21.30;9.60;;;;;;;-145.69;100.00;52767.19;5094604;28;20194;-82
2022/12/10 08:53:23;;;;;;;21.40;9.93;;;;;;;-145.69;100.00;52773.16;5095409;28;20209;-83
2022/12/10 08:55:52;;;;;;;24.37;11.17;;;;;;;-145.69;100.00;52808.78;5096309;28;20205;-84
2022/12/10 08:58:19;;;;;;;24.40;10.53;;;;;;;-145.69;100.00;52755.31;5095163;28;20205;-83
2022/12/10 09:00:45;;;;;;;22.37;11.47;;;;;;;-145.69;100.00;52733.53;5096033;28;20202;-84
2022/12/10 09:03:12;;;;;;;25.67;10.53;;;;;;;-145.69;100.00;52773.16;5099979;28;20216;-85
2022/12/10 09:05:38;;;;;;;21.90;9.90;;;;;;;-145.69;100.00;52783.06;5094596;28;20205;-83
2022/12/10 09:08:05;;;;;;;24.37;9.67;;;;;;;-145.69;100.00;52749.38;5094200;28;20281;-85
2022/12/10 09:10:31;;;;;;;20.90;9.83;;;;;;;-145.69;100.00;52753.34;5095007;28;20201;-84
2022/12/10 09:12:59;;;;;;;22.03;10.10;;;;;;;-145.69;100.00;52737.50;5094798;28;20194;-84
2022/12/10 09:15:26;;;;;;;20.83;9.63;;;;;;;-145.69;100.00;52773.16;5094777;28;20205;-85
2022/12/10 09:17:52;;;;;;;20.97;9.43;;;;;;;-145.69;100.00;52769.19;5094779;28;20229;-85
2022/12/10 09:20:19;;;;;;;20.40;9.80;;;;;;;-145.69;100.00;52771.16;5099150;28;20202;-83
2022/12/10 09:22:45;;;;;;;21.23;10.50;;;;;;;-145.69;100.00;52737.50;5094964;28;20587;-84
2022/12/10 09:25:15;;;;;;;26.80;11.90;;;;;;;-145.69;100.00;52737.50;5096496;28;20197;-81
2022/12/10 09:27:41;;;;;;;26.87;11.13;;;;;;;-145.69;100.00;52761.25;5095547;28;20202;-81
2022/12/10 09:30:11;;;;;;;26.63;11.70;;;;;;;-145.69;100.00;52743.44;5096547;28;20217;-81
2022/12/10 09:32:39;;;;;;;26.27;11.33;;;;;;;-145.69;100.00;52757.31;5095181;28;20245;-81
2022/12/10 09:35:07;;;;;;;29.90;15.05;;;;;;;-145.69;100.00;52753.34;5092364;28;20502;-80
2022/12/10 09:37:36;;;;;;;30.83;14.00;;;;;;;-145.69;100.00;52806.81;5095626;28;20336;-81
2022/12/10 09:40:03;;;;;;;27.73;13.43;;;;;;;-145.69;100.00;52763.25;5094363;28;20205;-83
2022/12/10 09:42:44;;;;;;;25.80;12.50;;;;;;;-145.69;100.00;52733.53;5095223;28;20202;-81
2022/12/10 09:45:21;;;;;;;33.57;14.10;;;;;;;-145.69;100.00;52773.16;5097274;28;20201;-83
2022/12/10 09:47:58;;;;;;;31.93;14.73;;;;;;;-145.69;100.00;52777.09;5096698;28;20204;-83
2022/12/10 09:50:30;;;;;;;34.72;17.95;;;;;;;-145.69;100.00;52725.63;5094436;28;20525;-82
2022/12/10 09:53:00;;;;;;;32.43;15.60;;;;;;;-145.69;100.00;52729.56;5099926;28;20285;-83
2022/12/10 09:55:34;;;;;;;28.07;13.90;;;;;;;-145.69;100.00;52715.72;5102368;28;20676;-82
2022/12/10 09:58:02;;;;;;;30.67;13.80;;;;;;;-145.69;100.00;52705.81;5102321;28;20220;-83
2022/12/10 10:00:36;;;;;;;30.80;14.30;;;;;;;-145.69;100.00;52745.41;5101473;28;20209;-83
2022/12/10 10:03:03;;;;;;;34.03;14.93;;;;;;;-145.69;100.00;52765.22;5101470;28;20220;-83
2022/12/10 10:05:32;;;;;;;38.37;15.97;;;;;;;-145.69;100.00;52765.22;5101262;28;20225;-83
2022/12/10 10:08:02;;;;;;;39.17;15.80;;;;;;;-145.69;100.00;52761.25;5100407;28;20194;-84
2022/12/10 10:10:31;;;;;;;31.33;14.87;;;;;;;-145.69;100.00;52733.53;5099318;28;20542;-84
2022/12/10 10:13:11;;;;;;;34.20;14.93;;;;;;;-145.69;100.00;52747.41;5099385;28;20210;-83
2022/12/10 10:15:42;;;;;;;35.13;16.23;;;;;;;-145.69;100.00;52773.16;5100046;28;20224;-83
2022/12/10 10:18:16;;;;;;;32.60;14.23;;;;;;;-145.69;100.00;52769.19;5100259;28;20238;-83
2022/12/10 10:20:43;;;;;;;34.60;14.93;;;;;;;-145.69;100.00;52749.38;5097936;28;20204;-83
2022/12/10 10:23:13;;;;;;;37.40;16.30;;;;;;;-145.69;100.00;52745.41;5098511;28;20206;-83
2022/12/10 10:25:40;;;;;;;34.07;15.97;;;;;;;-145.69;100.00;52743.44;5097497;28;20218;-82
2022/12/10 10:28:06;;;;;;;44.00;18.47;;;;;;;-145.69;100.00;52753.34;5096968;28;20217;-83
2022/12/10 10:30:33;;;;;;;36.70;16.07;;;;;;;-145.69;100.00;52729.56;5097948;28;20583;-84
2022/12/10 10:33:10;;;;;;;37.97;16.80;;;;;;;-145.69;100.00;52757.31;5097932;28;20297;-83
2022/12/10 10:35:45;;;;;;;39.37;17.70;;;;;;;-145.69;100.00;52737.50;5098583;28;20263;-83
2022/12/10 10:38:20;;;;;;;34.83;15.90;;;;;;;-145.69;100.00;52739.47;5096760;28;20225;-85
2022/12/10 10:40:51;;;;;;;34.50;17.10;;;;;;;-145.69;100.00;52709.78;5096576;28;20208;-82
2022/12/10 10:43:22;;;;;;;33.90;14.80;;;;;;;-145.69;100.00;52769.19;5098165;28;20190;-83
2022/12/10 10:45:57;;;;;;;31.47;14.57;;;;;;;-145.69;100.00;52773.16;5097124;28;20198;-82
2022/12/10 10:48:27;;;;;;;33.07;15.40;;;;;;;-145.69;100.00;52723.63;5096240;28;20208;-84
2022/12/10 10:50:56;;;;;;;30.03;13.97;;;;;;;-145.69;100.00;52678.09;5096797;28;20694;-83
2022/12/10 10:53:32;;;;;;;32.07;15.73;;;;;;;-145.69;100.00;52745.41;5097927;28;20201;-83
2022/12/10 10:56:11;;;;;;;30.80;15.33;;;;;;;-145.69;100.00;52745.41;5099872;28;20221;-83
2022/12/10 10:58:49;;;;;;;31.83;13.70;;;;;;;-145.69;100.00;52761.25;5097777;28;20209;-84
2022/12/10 11:01:15;;;;;;;31.90;14.50;;;;;;;-145.69;100.00;52779.09;5096741;28;20198;-83
2022/12/10 11:03:49;;;;;;;31.40;14.30;;;;;;;-145.69;100.00;52763.25;5097165;28;20656;-82
2022/12/10 11:06:15;;;;;;;30.73;14.33;;;;;;;-145.69;100.00;52769.19;5095534;28;20198;-85
2022/12/10 11:08:45;;;;;;;32.40;14.03;;;;;;;-145.69;100.00;52751.34;5095064;28;20206;-83
2022/12/10 11:11:18;;;;;;;30.73;14.50;;;;;;;-145.69;100.00;52735.50;5097760;28;20660;-83